Navplion, Greece
Current Conditions -  °F | °C
As of 9:20 AM on Sunday 23 Nov 2014 (Local Time) from LGEL Reporting Station
Broken Clouds Broken Clouds  
Wind Chill: 54°   Ceiling: 3500
Heat Index: 54°   Visibility: 6mi
Dew Point: 41°   Wind: 7mph
Humidity: 62%   Direction: 330°NNW
Pressure: 30.27"   Gusts: NA
Location:  37.57°N, 22.81°E
Report Text: LGEL 230720Z 33006KT 9999 SCT030 BKN035 12/05 Q1025
Loading
Personal Weather Stations






























Interactive Weather Map New forecast layout! Learn more

10-Day Weather Forecast

Advertisements
Track Severe Weather on mobile